Time;durP1;ratioP1;P1;durP2;ratioP2;P2;SDS_P1;SDS_P2;PMS_P1;PMS_P2;Temp;Humidity;BMP_temperature;BMP_pressure;BME280_temperature;BME280_humidity;BME280_pressure;Samples;Min_cycle;Max_cycle;Signal;HPM_P1;HPM_P2
2023/07/09 00:00:21;;;;;;;;;15.00;13.25;;;;;-142.59;100.00;56100.38;4911477;28;50152;-70
2023/07/09 00:02:48;;;;;;;;;8.50;8.00;;;;;-142.59;100.00;56100.38;4910366;28;54564;-71
2023/07/09 00:05:16;;;;;;;;;11.75;7.75;;;;;-142.59;100.00;56100.38;4911048;28;49943;-69
2023/07/09 06:05:37;;;;;;;;;22.00;21.50;;;;;-142.59;100.00;56100.38;4909899;28;49895;-74
2023/07/09 06:08:04;;;;;;;;;0.00;0.00;;;;;-142.59;100.00;56100.38;4888943;28;59460;-74
2023/07/09 06:10:30;;;;;;;;;3.00;2.00;;;;;-142.59;100.00;56100.38;4892954;28;50078;-75
2023/07/09 06:12:58;;;;;;;;;4.00;4.00;;;;;-142.59;100.00;56100.38;4889915;28;50151;-74
2023/07/09 06:15:24;;;;;;;;;7.00;7.00;;;;;-142.59;100.00;56100.38;4892949;28;49856;-74
2023/07/09 06:17:49;;;;;;;;;12.25;8.00;;;;;-142.59;100.00;56100.38;4895207;28;50203;-74
2023/07/09 06:20:15;;;;;;;;;8.00;7.25;;;;;-142.59;100.00;56100.38;4892370;28;68136;-74
2023/07/09 06:22:40;;;;;;;;;8.00;6.00;;;;;-142.59;100.00;56100.38;4892489;28;50084;-74
2023/07/09 06:25:06;;;;;;;;;2.00;0.50;;;;;-142.59;100.00;56100.38;4892720;28;59194;-70
2023/07/09 06:27:31;;;;;;;;;5.00;4.00;;;;;-142.59;100.00;56100.38;4893571;28;51393;-70
2023/07/09 06:29:56;;;;;;;;;1.25;1.00;;;;;-142.59;100.00;56100.38;4891959;28;61601;-71
2023/07/09 06:32:22;;;;;;;;;8.25;7.00;;;;;-142.59;100.00;56100.38;4892563;29;62119;-70
2023/07/09 06:34:47;;;;;;;;;6.00;4.50;;;;;-142.59;100.00;56100.38;4893169;28;52540;-71
2023/07/09 06:37:12;;;;;;;;;6.00;6.00;;;;;-142.59;100.00;56100.38;4906614;28;64999;-71
2023/07/09 06:39:37;;;;;;;;;6.50;5.00;;;;;-142.59;100.00;56100.38;4892364;29;70039;-71
2023/07/09 06:42:03;;;;;;;;;5.00;5.00;;;;;-142.59;100.00;56100.38;4893129;29;59612;-71
2023/07/09 06:44:28;;;;;;;;;6.50;4.50;;;;;-142.59;100.00;56100.38;4893079;28;49649;-71
2023/07/09 06:46:54;;;;;;;;;7.50;6.50;;;;;-142.59;100.00;56100.38;4893160;28;50354;-71
2023/07/09 06:49:19;;;;;;;;;10.50;7.75;;;;;-142.59;100.00;56100.38;4892050;29;62386;-71
2023/07/09 06:51:44;;;;;;;;;7.25;6.75;;;;;-142.59;100.00;56100.38;4892185;29;67991;-71
2023/07/09 06:54:12;;;;;;;;;5.00;5.00;;;;;-142.59;100.00;56100.38;4893004;28;50165;-71
2023/07/09 06:56:38;;;;;;;;;3.75;3.75;;;;;-142.59;100.00;56100.38;4893209;28;50568;-71
2023/07/09 06:59:03;;;;;;;;;6.00;6.00;;;;;-142.59;100.00;56100.38;4892728;28;50184;-71
2023/07/09 07:01:29;;;;;;;;;7.50;7.00;;;;;-142.59;100.00;56100.38;4892824;28;50158;-73
2023/07/09 07:03:54;;;;;;;;;21.00;16.00;;;;;-142.59;100.00;56100.38;4893135;28;49574;-71
2023/07/09 07:06:19;;;;;;;;;5.00;5.00;;;;;-142.59;100.00;56100.38;4890861;29;71091;-70
2023/07/09 07:08:45;;;;;;;;;7.00;5.00;;;;;-142.59;100.00;56100.38;4892422;29;49864;-71
2023/07/09 07:11:10;;;;;;;;;13.00;13.00;;;;;-142.59;100.00;56100.38;4892335;28;50063;-70
2023/07/09 07:13:37;;;;;;;;;1.00;1.00;;;;;-142.59;100.00;56100.38;4891514;28;52478;-72
2023/07/09 07:16:05;;;;;;;;;8.75;7.25;;;;;-142.59;100.00;56100.38;4891946;28;49837;-70
2023/07/09 07:18:31;;;;;;;;;1.25;1.00;;;;;-142.59;100.00;56100.38;4892290;28;50372;-71
2023/07/09 07:20:56;;;;;;;;;11.00;11.00;;;;;-142.59;100.00;56100.38;4890915;28;50260;-70
2023/07/09 07:23:23;;;;;;;;;7.00;7.00;;;;;-142.59;100.00;56100.38;4891768;28;50140;-70
2023/07/09 07:25:48;;;;;;;;;8.50;5.00;;;;;-142.59;100.00;56100.38;4891413;28;49831;-70
2023/07/09 07:28:15;;;;;;;;;6.50;4.75;;;;;-142.59;100.00;56100.38;4892493;28;49852;-70
2023/07/09 07:30:41;;;;;;;;;5.00;5.00;;;;;-142.59;100.00;56100.38;4891595;28;49848;-71
2023/07/09 07:33:06;;;;;;;;;6.00;6.00;;;;;-142.59;100.00;56100.38;4892206;29;50167;-73
2023/07/09 07:35:32;;;;;;;;;4.50;4.50;;;;;-142.59;100.00;56100.38;4891976;28;49856;-72
2023/07/09 07:37:57;;;;;;;;;8.50;7.00;;;;;-142.59;100.00;56100.38;4892204;28;49785;-77
2023/07/09 07:40:23;;;;;;;;;8.00;5.00;;;;;-142.59;100.00;56100.38;4891828;28;50021;-76
2023/07/09 07:42:48;;;;;;;;;7.50;7.25;;;;;-142.59;100.00;56100.38;4892049;28;50047;-75
2023/07/09 07:45:13;;;;;;;;;6.00;4.00;;;;;-142.59;100.00;56100.38;4892428;28;54006;-74
2023/07/09 07:47:39;;;;;;;;;9.00;8.75;;;;;-142.59;100.00;56100.38;4891832;29;51001;-73
2023/07/09 07:50:06;;;;;;;;;10.50;10.50;;;;;-142.59;100.00;56100.38;4891991;28;49708;-71
2023/07/09 07:52:31;;;;;;;;;14.00;14.00;;;;;-142.59;100.00;56100.38;4892222;28;50109;-69
2023/07/09 07:54:56;;;;;;;;;9.50;7.50;;;;;-142.59;100.00;56100.38;4892452;28;52845;-71
2023/07/09 07:57:24;;;;;;;;;5.00;5.00;;;;;-142.59;100.00;56100.38;4892555;28;50099;-69
2023/07/09 07:59:50;;;;;;;;;12.00;12.00;;;;;-142.59;100.00;56100.38;4889465;29;49833;-68
2023/07/09 08:02:15;;;;;;;;;9.25;9.25;;;;;-142.59;100.00;56100.38;4890431;29;50025;-70
2023/07/09 08:04:41;;;;;;;;;4.75;3.50;;;;;-142.59;100.00;56100.38;4890770;28;50098;-69
2023/07/09 08:07:10;;;;;;;;;3.50;3.50;;;;;-142.59;100.00;56100.38;4890812;28;49683;-69
2023/07/09 08:09:36;;;;;;;;;5.50;5.50;;;;;-142.59;100.00;56100.38;4890029;28;49842;-70
2023/07/09 08:12:08;;;;;;;;;4.00;4.00;;;;;-142.59;100.00;56100.38;4901637;28;50373;-69
2023/07/09 08:14:34;;;;;;;;;9.75;7.50;;;;;-142.59;100.00;56100.38;4882682;29;49976;-69
2023/07/09 08:16:59;;;;;;;;;6.00;5.00;;;;;-142.59;100.00;56100.38;4891273;28;49800;-69
2023/07/09 08:19:24;;;;;;;;;1.25;1.25;;;;;-142.59;100.00;56100.38;4890621;28;68136;-69
2023/07/09 08:21:50;;;;;;;;;3.00;3.00;;;;;-142.59;100.00;56100.38;4891450;29;63321;-71
2023/07/09 08:24:15;;;;;;;;;8.00;6.00;;;;;-142.59;100.00;56100.38;4886143;28;72427;-71
2023/07/09 08:26:40;;;;;;;;;8.75;7.75;;;;;-142.59;100.00;56100.38;4887186;29;49693;-69
2023/07/09 08:29:06;;;;;;;;;5.00;5.00;;;;;-142.59;100.00;56100.38;4890634;29;55080;-71
2023/07/09 08:31:31;;;;;;;;;8.50;7.00;;;;;-142.59;100.00;56100.38;4891837;28;50215;-75
2023/07/09 08:33:56;;;;;;;;;11.00;6.50;;;;;-142.59;100.00;56100.38;4891746;28;49846;-70
2023/07/09 08:36:23;;;;;;;;;7.00;7.00;;;;;-142.59;100.00;56100.38;4891453;28;50150;-70
2023/07/09 08:38:49;;;;;;;;;13.25;10.25;;;;;-142.59;100.00;56100.38;4890323;28;61200;-69
2023/07/09 08:41:42;;;;;;;;;11.00;8.25;;;;;-142.59;100.00;56100.38;4891352;28;49824;-69
2023/07/09 08:44:30;;;;;;;;;11.00;10.00;;;;;-142.59;100.00;56100.38;4891139;28;50837;-70
2023/07/09 08:47:25;;;;;;;;;7.00;7.00;;;;;-142.59;100.00;56100.38;4882367;29;49770;-74
2023/07/09 08:49:59;;;;;;;;;11.50;10.25;;;;;-142.59;100.00;56100.38;4891071;28;49756;-72
2023/07/09 08:52:56;;;;;;;;;11.75;9.75;;;;;-142.59;100.00;56100.38;4891399;28;49774;-82
2023/07/09 08:55:25;;;;;;;;;5.00;5.00;;;;;-142.59;100.00;56100.38;4886128;29;51035;-77
2023/07/09 08:58:17;;;;;;;;;4.50;4.00;;;;;-142.59;100.00;56100.38;4890461;28;49779;-72
2023/07/09 09:00:54;;;;;;;;;9.25;8.25;;;;;-142.59;100.00;56100.38;4889172;28;49746;-73
2023/07/09 09:03:37;;;;;;;;;13.50;9.25;;;;;-142.59;100.00;56100.38;4887790;28;49866;-77
2023/07/09 09:06:16;;;;;;;;;8.50;6.50;;;;;-142.59;100.00;56100.38;4889710;28;49845;-67
2023/07/09 09:08:55;;;;;;;;;7.00;7.00;;;;;-142.59;100.00;56100.38;4889488;28;50002;-66
2023/07/09 09:11:34;;;;;;;;;7.75;6.00;;;;;-142.59;100.00;56100.38;4888378;29;49760;-66
2023/07/09 09:14:06;;;;;;;;;14.50;9.50;;;;;-142.59;100.00;56100.38;4890593;28;51050;-67
2023/07/09 09:16:36;;;;;;;;;8.25;7.50;;;;;-142.59;100.00;56100.38;4890657;29;49744;-74
2023/07/09 09:19:03;;;;;;;;;8.00;8.00;;;;;-142.59;100.00;56100.38;4890921;28;49889;-72
2023/07/09 09:21:35;;;;;;;;;4.00;4.00;;;;;-142.59;100.00;56100.38;4894668;28;50184;-69
2023/07/09 09:24:14;;;;;;;;;6.00;5.75;;;;;-142.59;100.00;56100.38;4894259;28;49988;-69
2023/07/09 09:26:43;;;;;;;;;8.00;8.00;;;;;-142.59;100.00;56100.38;4893533;28;50729;-70
2023/07/09 09:29:15;;;;;;;;;5.50;4.50;;;;;-142.59;100.00;56100.38;4893681;28;49636;-73
2023/07/09 09:31:44;;;;;;;;;12.75;10.00;;;;;-142.59;100.00;56100.38;4893800;28;49759;-72
2023/07/09 09:34:30;;;;;;;;;18.00;15.25;;;;;-142.59;100.00;56100.38;4893512;28;49817;-70
2023/07/09 09:36:58;;;;;;;;;8.00;5.00;;;;;-142.59;100.00;56100.38;4889073;29;49837;-69
2023/07/09 09:39:25;;;;;;;;;13.50;5.75;;;;;-142.59;100.00;56100.38;4887631;28;49830;-68
2023/07/09 09:41:56;;;;;;;;;8.00;8.00;;;;;-142.59;100.00;56100.38;4892639;28;49746;-70
2023/07/09 09:44:26;;;;;;;;;8.25;6.25;;;;;-142.59;100.00;56100.38;4893381;28;49969;-71
2023/07/09 09:46:52;;;;;;;;;16.50;16.25;;;;;-142.59;100.00;56100.38;4890212;28;50681;-67
2023/07/09 09:49:17;;;;;;;;;11.25;9.25;;;;;-142.59;100.00;56100.38;4893324;28;50193;-71
2023/07/09 09:51:45;;;;;;;;;27.50;26.50;;;;;-142.59;100.00;56100.38;4889177;28;49858;-68
2023/07/09 09:54:19;;;;;;;;;7.75;7.75;;;;;-142.59;100.00;56100.38;4892754;28;49781;-68
2023/07/09 09:56:44;;;;;;;;;9.00;6.25;;;;;-142.59;100.00;56100.38;4892905;28;49842;-68
2023/07/09 09:59:19;;;;;;;;;12.50;11.75;;;;;-142.59;100.00;56100.38;4888630;29;49873;-74
2023/07/09 10:01:44;;;;;;;;;4.75;4.75;;;;;-142.59;100.00;56100.38;4891187;28;50063;-77
2023/07/09 10:04:17;;;;;;;;;10.00;9.00;;;;;-142.59;100.00;56100.38;4894183;28;49897;-74
2023/07/09 10:06:47;;;;;;;;;5.00;4.25;;;;;-142.59;100.00;56100.38;4893895;29;50327;-75
2023/07/09 10:09:30;;;;;;;;;11.00;11.00;;;;;-142.59;100.00;56100.38;4892990;28;49834;-74
2023/07/09 10:12:23;;;;;;;;;17.00;17.00;;;;;-142.59;100.00;56100.38;4893253;29;49823;-77
2023/07/09 10:14:58;;;;;;;;;13.25;12.00;;;;;-142.59;100.00;56100.38;4894241;28;49745;-77
2023/07/09 10:18:00;;;;;;;;;8.00;8.00;;;;;-142.59;100.00;56100.38;4882267;29;50712;-74
2023/07/09 10:20:47;;;;;;;;;10.75;9.25;;;;;-142.59;100.00;56100.38;4890674;29;49812;-76
2023/07/09 10:23:22;;;;;;;;;6.75;4.25;;;;;-142.59;100.00;56100.38;4894560;28;49761;-77
2023/07/09 10:26:14;;;;;;;;;4.50;4.50;;;;;-142.59;100.00;56100.38;4893893;28;49750;-77
2023/07/09 10:28:58;;;;;;;;;12.00;11.00;;;;;-142.59;100.00;56100.38;4892559;28;52390;-70
2023/07/09 10:31:35;;;;;;;;;13.25;9.00;;;;;-142.59;100.00;56100.38;4904020;28;52315;-71
2023/07/09 10:34:09;;;;;;;;;12.00;12.00;;;;;-142.59;100.00;56100.38;4892707;28;49779;-70
2023/07/09 10:37:11;;;;;;;;;25.75;24.50;;;;;-142.59;100.00;56100.38;4890426;29;49884;-70
2023/07/09 10:39:42;;;;;;;;;13.75;12.25;;;;;-142.59;100.00;56100.38;4890979;29;50654;-71
2023/07/09 10:42:19;;;;;;;;;9.00;9.00;;;;;-142.59;100.00;56100.38;4890848;28;49907;-73
2023/07/09 10:44:53;;;;;;;;;9.50;9.50;;;;;-142.59;100.00;56100.38;4888214;28;50414;-85
2023/07/09 10:47:31;;;;;;;;;9.25;7.00;;;;;-142.59;100.00;56100.38;4894036;28;49945;-76
2023/07/09 10:50:00;;;;;;;;;13.00;13.00;;;;;-142.59;100.00;56100.38;4891817;29;50701;-82
2023/07/09 10:52:30;;;;;;;;;8.75;8.75;;;;;-142.59;100.00;56100.38;4892800;29;50082;-84
2023/07/09 10:55:15;;;;;;;;;12.25;11.50;;;;;-142.59;100.00;56100.38;4893270;28;50204;-73
2023/07/09 10:57:48;;;;;;;;;11.75;11.75;;;;;-142.59;100.00;56100.38;4893167;28;49692;-74
2023/07/09 11:00:18;;;;;;;;;15.75;13.00;;;;;-142.59;100.00;56100.38;4889809;28;50368;-76
2023/07/09 11:02:45;;;;;;;;;9.75;9.00;;;;;-142.59;100.00;56100.38;4892866;28;49905;-78
2023/07/09 11:05:10;;;;;;;;;10.50;8.75;;;;;-142.59;100.00;56100.38;4892540;28;49659;-75
2023/07/09 11:07:43;;;;;;;;;11.25;11.25;;;;;-142.59;100.00;56100.38;4897767;28;56923;-74
2023/07/09 11:10:32;;;;;;;;;9.75;8.00;;;;;-142.59;100.00;56100.38;4892516;29;50703;-72
2023/07/09 11:13:04;;;;;;;;;10.75;10.00;;;;;-142.59;100.00;56100.38;4892495;28;49738;-71
2023/07/09 11:15:35;;;;;;;;;11.25;10.75;;;;;-142.59;100.00;56100.38;4889017;29;49791;-74
2023/07/09 11:18:07;;;;;;;;;7.25;7.25;;;;;-142.59;100.00;56100.38;4887289;29;49777;-76
2023/07/09 11:20:41;;;;;;;;;7.50;3.50;;;;;-142.59;100.00;56100.38;4892255;28;50166;-76
2023/07/09 11:23:19;;;;;;;;;17.50;12.50;;;;;-142.59;100.00;56100.38;4889962;28;49926;-71
2023/07/09 11:25:47;;;;;;;;;8.25;7.50;;;;;-142.59;100.00;56100.38;4890774;28;49971;-72
2023/07/09 11:28:14;;;;;;;;;13.00;13.00;;;;;-142.59;100.00;56100.38;4890796;28;49946;-71
2023/07/09 11:30:49;;;;;;;;;10.50;8.25;;;;;-142.59;100.00;56100.38;4890349;28;50899;-73
2023/07/09 11:33:17;;;;;;;;;5.25;4.00;;;;;-142.59;100.00;56100.38;4892268;28;49607;-73
2023/07/09 11:35:49;;;;;;;;;7.50;7.50;;;;;-142.59;100.00;56100.38;4892036;28;49859;-73
2023/07/09 11:38:23;;;;;;;;;6.50;6.25;;;;;-142.59;100.00;56100.38;4890752;28;49804;-75
2023/07/09 11:40:54;;;;;;;;;16.75;15.00;;;;;-142.59;100.00;56100.38;4890559;28;50117;-73
2023/07/09 11:43:28;;;;;;;;;13.00;12.50;;;;;-142.59;100.00;56100.38;4893316;28;50148;-75
2023/07/09 11:45:58;;;;;;;;;10.00;10.00;;;;;-142.59;100.00;56100.38;4891762;29;50117;-70
2023/07/09 11:48:28;;;;;;;;;9.25;8.00;;;;;-142.59;100.00;56100.38;4892043;29;50067;-70
2023/07/09 11:50:56;;;;;;;;;2.00;2.00;;;;;-142.59;100.00;56100.38;4891804;28;49952;-70
2023/07/09 11:53:42;;;;;;;;;10.00;8.50;;;;;-142.59;100.00;56100.38;4891969;28;50106;-70
2023/07/09 11:56:08;;;;;;;;;12.50;9.25;;;;;-142.59;100.00;56100.38;4891091;28;50107;-72
2023/07/09 11:58:34;;;;;;;;;7.75;7.00;;;;;-142.59;100.00;56100.38;4892205;28;49743;-70
2023/07/09 12:01:01;;;;;;;;;9.00;5.75;;;;;-142.59;100.00;56100.38;4891432;28;66798;-74
2023/07/09 12:03:32;;;;;;;;;4.75;4.75;;;;;-142.59;100.00;56100.38;4887552;29;50028;-77
2023/07/09 12:06:13;;;;;;;;;7.00;5.00;;;;;-142.59;100.00;56100.38;4892005;28;49803;-73
2023/07/09 12:08:42;;;;;;;;;9.75;9.25;;;;;-142.59;100.00;56100.38;4891922;28;49986;-74
2023/07/09 12:11:19;;;;;;;;;114.00;113.33;;;;;-142.59;100.00;56100.38;4891070;28;50475;-77
2023/07/09 12:13:45;;;;;;;;;91.67;75.33;;;;;-142.59;100.00;56100.38;4907439;28;49834;-76
2023/07/09 12:16:30;;;;;;;;;99.33;85.33;;;;;-142.59;100.00;56100.38;4910682;28;49833;-77
2023/07/09 12:18:56;;;;;;;;;97.33;83.33;;;;;-142.59;100.00;56100.38;4908265;28;49973;-75
2023/07/09 12:21:25;;;;;;;;;86.75;70.50;;;;;-142.59;100.00;56100.38;4910518;28;49768;-75
2023/07/09 12:23:51;;;;;;;;;72.75;61.75;;;;;-142.59;100.00;56100.38;4907134;28;49983;-73
2023/07/09 12:26:19;;;;;;;;;1.00;1.00;;;;;-142.59;100.00;56100.38;4900820;28;49888;-76
2023/07/09 12:28:55;;;;;;;;;21.50;20.00;;;;;-142.59;100.00;56100.38;4907016;28;49998;-77
2023/07/09 12:31:26;;;;;;;;;20.50;19.25;;;;;-142.59;100.00;56100.38;4910280;28;50544;-69
2023/07/09 12:33:54;;;;;;;;;17.75;17.75;;;;;-142.59;100.00;56100.38;4909557;28;49882;-74
2023/07/09 12:36:19;;;;;;;;;84.25;70.00;;;;;-142.59;100.00;56100.38;4910431;28;49747;-73
2023/07/09 12:38:48;;;;;;;;;100.33;89.33;;;;;-142.59;100.00;56100.38;4909663;28;49827;-73
2023/07/09 12:41:37;;;;;;;;;66.25;56.50;;;;;-142.59;100.00;56100.38;4909825;28;51546;-73
2023/07/09 12:44:03;;;;;;;;;93.00;77.00;;;;;-142.59;100.00;56100.38;4910479;28;49748;-73
2023/07/09 12:46:29;;;;;;;;;103.33;93.00;;;;;-142.59;100.00;56100.38;4910322;28;49831;-71
2023/07/09 12:48:55;;;;;;;;;102.67;93.67;;;;;-142.59;100.00;56100.38;4910163;28;49983;-69
2023/07/09 12:51:24;;;;;;;;;24.50;23.00;;;;;-142.59;100.00;56100.38;4910044;28;51379;-71
2023/07/09 12:54:21;;;;;;;;;33.00;31.25;;;;;-142.59;100.00;56100.38;4900505;28;50463;-72
2023/07/09 12:56:46;;;;;;;;;96.67;81.00;;;;;-142.59;100.00;56100.38;4896834;28;49947;-73
2023/07/09 12:59:27;;;;;;;;;93.67;83.00;;;;;-142.59;100.00;56100.38;4901207;28;49964;-70
2023/07/09 13:02:01;;;;;;;;;117.67;115.33;;;;;-142.59;100.00;56100.38;4904692;28;49803;-65
2023/07/09 13:04:36;;;;;;;;;114.33;112.67;;;;;-142.59;100.00;56100.38;4909916;28;49684;-67
2023/07/09 13:07:02;;;;;;;;;104.67;97.00;;;;;-142.59;100.00;56100.38;4894958;28;50061;-65
2023/07/09 13:09:28;;;;;;;;;83.25;69.25;;;;;-142.59;100.00;56100.38;4895438;28;49726;-69
2023/07/09 13:11:55;;;;;;;;;78.00;65.50;;;;;-142.59;100.00;56100.38;4894614;28;49855;-69
2023/07/09 13:14:29;;;;;;;;;87.33;71.67;;;;;-142.59;100.00;56100.38;4895130;28;49837;-70
2023/07/09 13:17:09;;;;;;;;;87.00;72.33;;;;;-142.59;100.00;56100.38;4895296;28;50173;-79
2023/07/09 13:19:35;;;;;;;;;53.00;48.25;;;;;-142.59;100.00;56100.38;4896027;28;50113;-79
2023/07/09 13:22:01;;;;;;;;;3.00;3.00;;;;;-142.59;100.00;56100.38;4894426;28;50979;-75
2023/07/09 13:24:30;;;;;;;;;4.00;1.50;;;;;-142.59;100.00;56100.38;4895142;28;49766;-81
2023/07/09 13:26:59;;;;;;;;;10.00;10.00;;;;;-142.59;100.00;56100.38;4906147;28;49799;-78
2023/07/09 13:29:24;;;;;;;;;59.00;51.50;;;;;-142.59;100.00;56100.38;4900182;28;50109;-76
2023/07/09 13:31:50;;;;;;;;;91.75;74.50;;;;;-142.59;100.00;56100.38;4901168;28;49942;-78
2023/07/09 13:34:25;;;;;;;;;109.00;105.33;;;;;-142.59;100.00;56100.38;4894842;28;49720;-81
2023/07/09 13:36:53;;;;;;;;;117.00;114.33;;;;;-142.59;100.00;56100.38;4899214;28;49746;-82
2023/07/09 13:39:19;;;;;;;;;116.00;114.00;;;;;-142.59;100.00;56100.38;4905973;28;50132;-78
2023/07/09 13:41:46;;;;;;;;;102.33;100.33;;;;;-142.59;100.00;56100.38;4895177;28;50038;-75
2023/07/09 13:44:25;;;;;;;;;97.67;84.67;;;;;-142.59;100.00;56100.38;4894830;28;49763;-74
2023/07/09 13:46:51;;;;;;;;;82.75;69.00;;;;;-142.59;100.00;56100.38;4905819;28;49745;-75
2023/07/09 13:49:19;;;;;;;;;2.50;2.50;;;;;-142.59;100.00;56100.38;4894637;28;50045;-74
2023/07/09 13:51:47;;;;;;;;;43.25;40.25;;;;;-142.59;100.00;56100.38;4894311;28;50451;-75
2023/07/09 13:54:22;;;;;;;;;108.00;104.67;;;;;-142.59;100.00;56100.38;4894150;28;49841;-72
2023/07/09 13:56:51;;;;;;;;;120.67;120.67;;;;;-142.59;100.00;56100.38;4894392;28;49705;-70
2023/07/09 13:59:23;;;;;;;;;105.00;99.00;;;;;-142.59;100.00;56100.38;4895030;28;50075;-75
2023/07/09 14:01:51;;;;;;;;;115.00;115.00;;;;;-142.59;100.00;56100.38;4894070;28;50879;-72
2023/07/09 14:04:18;;;;;;;;;117.00;117.00;;;;;-142.59;100.00;56100.38;4897439;28;49644;-72
2023/07/09 14:06:46;;;;;;;;;98.67;89.33;;;;;-142.59;100.00;56100.38;4893590;28;49716;-71
2023/07/09 14:09:11;;;;;;;;;94.33;79.33;;;;;-142.59;100.00;56100.38;4899374;28;50127;-78
2023/07/09 14:11:43;;;;;;;;;107.67;103.67;;;;;-142.59;100.00;56100.38;4901453;28;50417;-75
2023/07/09 14:14:32;;;;;;;;;106.33;102.67;;;;;-142.59;100.00;56100.38;4902238;28;49869;-70
2023/07/09 14:16:59;;;;;;;;;25.75;25.75;;;;;-142.59;100.00;56100.38;4886577;28;49806;-70
2023/07/09 14:19:26;;;;;;;;;24.50;24.50;;;;;-142.59;100.00;56100.38;4909432;28;50110;-70
2023/07/09 14:21:52;;;;;;;;;12.25;12.25;;;;;-142.59;100.00;56100.38;4896741;28;49743;-70
2023/07/09 14:24:26;;;;;;;;;0.00;0.00;;;;;-142.59;100.00;56100.38;4909651;28;49762;-71
2023/07/09 14:26:53;;;;;;;;;3.50;1.00;;;;;-142.59;100.00;56100.38;4911734;28;49846;-70
2023/07/09 14:29:18;;;;;;;;;1.00;1.00;;;;;-142.59;100.00;56100.38;4907332;28;49974;-69
2023/07/09 14:31:45;;;;;;;;;4.00;2.00;;;;;-142.59;100.00;56100.38;4904463;28;50128;-70
2023/07/09 14:34:23;;;;;;;;;8.25;6.50;;;;;-142.59;100.00;56100.38;4900145;28;49774;-69
2023/07/09 14:36:49;;;;;;;;;2.75;1.25;;;;;-142.59;100.00;56100.38;4893812;28;49842;-72
2023/07/09 14:39:15;;;;;;;;;5.00;5.00;;;;;-142.59;100.00;56100.38;4905697;28;49728;-71
2023/07/09 14:41:40;;;;;;;;;0.25;0.25;;;;;-142.59;100.00;56100.38;4901186;28;49681;-72
2023/07/09 14:44:25;;;;;;;;;2.00;2.00;;;;;-142.59;100.00;56100.38;4902512;28;49728;-72
2023/07/09 14:46:52;;;;;;;;;2.75;2.00;;;;;-142.59;100.00;56100.38;4893738;28;49664;-72
2023/07/09 14:49:18;;;;;;;;;4.00;1.50;;;;;-142.59;100.00;56100.38;4906019;28;50059;-71
2023/07/09 14:51:44;;;;;;;;;2.00;2.00;;;;;-142.59;100.00;56100.38;4892806;28;50186;-71
2023/07/09 14:54:22;;;;;;;;;0.00;0.00;;;;;-142.59;100.00;56100.38;4893877;28;50196;-71
2023/07/09 14:56:48;;;;;;;;;0.50;0.00;;;;;-142.59;100.00;56100.38;4902310;28;50250;-72
2023/07/09 14:59:14;;;;;;;;;4.50;2.50;;;;;-142.59;100.00;56100.38;4896462;28;49889;-72
2023/07/09 15:01:40;;;;;;;;;1.00;1.00;;;;;-142.59;100.00;56100.38;4893285;28;57401;-72
2023/07/09 15:04:30;;;;;;;;;4.00;4.00;;;;;-142.59;100.00;56100.38;4893422;28;50147;-71
2023/07/09 15:06:56;;;;;;;;;2.50;2.50;;;;;-142.59;100.00;56100.38;4892741;28;49832;-72
2023/07/09 15:09:24;;;;;;;;;6.00;5.00;;;;;-142.59;100.00;56100.38;4893082;28;49684;-72
2023/07/09 15:11:53;;;;;;;;;1.75;0.00;;;;;-142.59;100.00;56100.38;4893232;28;50710;-71
2023/07/09 15:14:18;;;;;;;;;0.75;0.00;;;;;-142.59;100.00;56100.38;4905326;28;49792;-71
2023/07/09 15:16:47;;;;;;;;;0.50;0.50;;;;;-142.59;100.00;56100.38;4901995;28;49752;-71
2023/07/09 15:19:13;;;;;;;;;5.75;5.75;;;;;-142.59;100.00;56100.38;4893297;28;49751;-71
2023/07/09 15:21:39;;;;;;;;;7.75;4.75;;;;;-142.59;100.00;56100.38;4900329;28;50441;-72
2023/07/09 15:24:10;;;;;;;;;53.25;46.25;;;;;-142.59;100.00;56100.38;4895438;28;50038;-71
2023/07/09 15:26:35;;;;;;;;;25.50;24.75;;;;;-142.59;100.00;56100.38;4896520;28;50049;-71
2023/07/09 15:29:01;;;;;;;;;8.75;6.50;;;;;-142.59;100.00;56100.38;4893598;28;49783;-71
2023/07/09 15:31:26;;;;;;;;;14.50;13.50;;;;;-142.59;100.00;56100.38;4892104;28;70585;-71
2023/07/09 15:33:51;;;;;;;;;52.75;47.75;;;;;-142.59;100.00;56100.38;4892605;28;64495;-71
2023/07/09 15:36:17;;;;;;;;;5.50;4.00;;;;;-142.59;100.00;56100.38;4892422;28;55934;-71
2023/07/09 15:38:42;;;;;;;;;84.00;69.25;;;;;-142.59;100.00;56100.38;4905180;28;49684;-70
2023/07/09 15:41:14;;;;;;;;;67.25;56.75;;;;;-142.59;100.00;56100.38;4892742;28;50698;-71
2023/07/09 15:43:44;;;;;;;;;73.25;61.00;;;;;-142.59;100.00;56100.38;4893202;28;49824;-71
2023/07/09 15:46:16;;;;;;;;;5.75;5.75;;;;;-142.59;100.00;56100.38;4897694;28;49868;-71
2023/07/09 15:48:44;;;;;;;;;4.00;2.50;;;;;-142.59;100.00;56100.38;4905253;28;49942;-71
2023/07/09 15:51:10;;;;;;;;;1.00;0.00;;;;;-142.59;100.00;56100.38;4892401;28;50916;-70
2023/07/09 15:53:35;;;;;;;;;1.00;1.00;;;;;-142.59;100.00;56100.38;4892677;28;49877;-71
2023/07/09 15:56:04;;;;;;;;;12.50;12.50;;;;;-142.59;100.00;56100.38;4892241;28;49814;-71
2023/07/09 15:58:38;;;;;;;;;8.25;8.25;;;;;-142.59;100.00;56100.38;4908242;28;49737;-71
2023/07/09 16:01:05;;;;;;;;;1.00;1.00;;;;;-142.59;100.00;56100.38;4910719;28;50683;-70
2023/07/09 16:03:30;;;;;;;;;1.50;0.00;;;;;-142.59;100.00;56100.38;4906700;28;50193;-72
2023/07/09 16:05:56;;;;;;;;;6.00;2.00;;;;;-142.59;100.00;56100.38;4904690;28;65250;-70
2023/07/09 16:08:21;;;;;;;;;51.25;46.25;;;;;-142.59;100.00;56100.38;4892357;28;49737;-71
2023/07/09 16:10:46;;;;;;;;;5.00;5.00;;;;;-142.59;100.00;56100.38;4903113;28;50463;-68
2023/07/09 16:13:20;;;;;;;;;61.00;52.50;;;;;-142.59;100.00;56100.38;4910432;28;52704;-68
2023/07/09 16:15:46;;;;;;;;;3.25;3.25;;;;;-142.59;100.00;56100.38;4900129;28;49836;-68
2023/07/09 16:18:11;;;;;;;;;2.00;0.00;;;;;-142.59;100.00;56100.38;4892226;28;49752;-68
2023/07/09 16:20:37;;;;;;;;;50.25;45.50;;;;;-142.59;100.00;56100.38;4892357;28;50485;-67
2023/07/09 16:23:02;;;;;;;;;0.00;0.00;;;;;-142.59;100.00;56100.38;4909558;28;49705;-68
2023/07/09 16:25:33;;;;;;;;;5.00;4.00;;;;;-142.59;100.00;56100.38;4911104;28;49947;-69
2023/07/09 16:28:00;;;;;;;;;1.00;1.00;;;;;-142.59;100.00;56100.38;4904287;28;49996;-68
2023/07/09 16:30:30;;;;;;;;;1.00;1.00;;;;;-142.59;100.00;56100.38;4915571;28;50050;-69
2023/07/09 16:32:56;;;;;;;;;11.00;9.75;;;;;-142.59;100.00;56100.38;4916547;28;49891;-68
2023/07/09 16:35:25;;;;;;;;;1.25;1.00;;;;;-142.59;100.00;56100.38;4905337;28;49627;-69
2023/07/09 16:37:50;;;;;;;;;0.00;0.00;;;;;-142.59;100.00;56100.38;4914128;28;49795;-68
2023/07/09 16:40:19;;;;;;;;;1.00;1.00;;;;;-142.59;100.00;56100.38;4913956;28;49801;-68
2023/07/09 16:42:46;;;;;;;;;0.75;0.75;;;;;-142.59;100.00;56100.38;4913560;28;49691;-69
2023/07/09 16:45:14;;;;;;;;;5.00;5.00;;;;;-142.59;100.00;56100.38;4913540;28;49978;-69
2023/07/09 16:47:40;;;;;;;;;3.00;2.00;;;;;-142.59;100.00;56100.38;4913207;28;49685;-68
2023/07/09 16:50:10;;;;;;;;;8.25;8.25;;;;;-142.59;100.00;56100.38;4902051;28;49851;-69
2023/07/09 16:52:35;;;;;;;;;2.00;2.00;;;;;-142.59;100.00;56100.38;4907568;28;49884;-68
2023/07/09 16:55:00;;;;;;;;;7.00;5.75;;;;;-142.59;100.00;56100.38;4909764;28;64267;-68
2023/07/09 16:57:29;;;;;;;;;1.00;1.00;;;;;-142.59;100.00;56100.38;4906996;28;50110;-68
2023/07/09 17:00:16;;;;;;;;;3.00;1.50;;;;;-142.59;100.00;56100.38;4899917;28;51414;-68
2023/07/09 17:02:42;;;;;;;;;2.00;2.00;;;;;-142.59;100.00;56100.38;4911201;28;49788;-68
2023/07/09 17:05:07;;;;;;;;;2.50;2.50;;;;;-142.59;100.00;56100.38;4912854;28;57832;-68
2023/07/09 17:07:33;;;;;;;;;3.00;3.00;;;;;-142.59;100.00;56100.38;4909599;28;50273;-68
2023/07/09 17:10:00;;;;;;;;;3.00;3.00;;;;;-142.59;100.00;56100.38;4903909;28;50706;-68
2023/07/09 17:12:26;;;;;;;;;2.00;2.00;;;;;-142.59;100.00;56100.38;4909982;28;49743;-67